Time;durP1;ratioP1;P1;durP2;ratioP2;P2;SDS_P1;SDS_P2;PMS_P1;PMS_P2;Temp;Humidity;BMP_temperature;BMP_pressure;BME280_temperature;BME280_humidity;BME280_pressure;Samples;Min_cycle;Max_cycle;Signal;HPM_P1;HPM_P2
2021/07/13 00:00:57;;;;;;;13.40;10.20;;;;;;;19.84;70.48;99832.69;5087737;28;20353;-72
2021/07/13 00:03:24;;;;;;;16.02;12.48;;;;;;;19.89;71.05;99841.00;5087516;28;20054;-71
2021/07/13 00:05:51;;;;;;;20.17;15.05;;;;;;;19.91;71.02;99841.66;5088324;28;20047;-71
2021/07/13 00:08:18;;;;;;;15.55;13.05;;;;;;;20.07;70.51;99831.81;5089527;28;20048;-71
2021/07/13 00:10:45;;;;;;;16.13;12.00;;;;;;;20.19;70.28;99822.28;5088015;28;20050;-72
2021/07/13 00:13:12;;;;;;;14.82;11.00;;;;;;;20.27;70.23;99838.28;5088227;28;20054;-69
2021/07/13 00:15:42;;;;;;;14.45;11.77;;;;;;;20.34;69.92;99833.00;5088552;28;20041;-71
2021/07/13 00:18:11;;;;;;;14.05;11.07;;;;;;;20.35;69.95;99840.88;5088055;28;20048;-69
2021/07/13 00:20:38;;;;;;;14.63;10.68;;;;;;;20.30;70.12;99854.00;5087000;28;20063;-70
2021/07/13 00:23:05;;;;;;;16.65;10.82;;;;;;;20.24;70.12;99857.44;5087147;28;20453;-70
2021/07/13 00:25:34;;;;;;;15.55;11.55;;;;;;;20.11;70.57;99870.63;5088049;28;20085;-71
2021/07/13 00:28:01;;;;;;;14.65;11.57;;;;;;;20.05;70.61;99899.81;5088957;28;20052;-70
2021/07/13 00:30:28;;;;;;;15.35;11.20;;;;;;;19.97;70.98;99924.03;5088010;28;20052;-70
2021/07/13 00:32:56;;;;;;;13.63;9.45;;;;;;;20.00;70.88;99922.84;5088271;28;20555;-71
2021/07/13 00:35:23;;;;;;;14.82;10.85;;;;;;;20.01;70.94;99946.78;5086673;28;20048;-69
2021/07/13 00:37:52;;;;;;;14.82;9.32;;;;;;;20.02;70.71;99943.09;5088236;28;20500;-70
2021/07/13 00:40:20;;;;;;;12.48;10.35;;;;;;;20.13;70.91;99975.84;5088498;28;20163;-70
2021/07/13 00:42:49;;;;;;;11.90;9.45;;;;;;;20.09;70.95;99961.13;5088147;28;20060;-70
2021/07/13 00:45:17;;;;;;;13.73;10.73;;;;;;;20.10;70.82;99976.22;5088114;28;20047;-70
2021/07/13 00:47:47;;;;;;;12.15;8.35;;;;;;;20.12;70.83;99960.78;5087789;28;20071;-70
2021/07/13 00:50:16;;;;;;;11.40;8.60;;;;;;;20.05;70.87;99920.44;5085402;28;20559;-73
2021/07/13 00:52:43;;;;;;;13.70;7.82;;;;;;;19.95;70.93;99885.88;5086990;28;20059;-70
2021/07/13 00:55:12;;;;;;;11.55;8.95;;;;;;;19.78;71.12;99852.19;5087301;28;20048;-71
2021/07/13 00:57:39;;;;;;;13.95;8.15;;;;;;;19.68;71.41;99842.50;5088666;28;20044;-70
2021/07/13 01:00:07;;;;;;;12.23;7.95;;;;;;;19.64;71.74;99821.59;5087115;28;20051;-72
2021/07/13 01:02:35;;;;;;;11.60;8.80;;;;;;;19.61;71.44;99804.06;5089311;28;20092;-71
2021/07/13 01:05:02;;;;;;;11.68;6.80;;;;;;;19.63;71.50;99819.97;5088801;28;20071;-71
2021/07/13 01:07:38;;;;;;;9.77;7.45;;;;;;;19.65;71.51;99840.19;5087679;28;20693;-72
2021/07/13 01:10:12;;;;;;;14.10;9.15;;;;;;;19.74;71.43;99885.72;5087556;28;20044;-71
2021/07/13 01:12:50;;;;;;;13.73;9.80;;;;;;;19.76;71.47;99889.03;5087203;28;20044;-71
2021/07/13 01:15:20;;;;;;;15.20;8.95;;;;;;;19.75;71.86;99865.94;5086814;28;20048;-72
2021/07/13 01:17:52;;;;;;;12.70;9.05;;;;;;;19.76;72.02;99862.25;5088386;28;20048;-71
2021/07/13 01:20:41;;;;;;;13.63;9.20;;;;;;;19.87;71.74;99867.16;5085361;28;20059;-72
2021/07/13 01:23:19;;;;;;;12.15;9.18;;;;;;;19.91;71.55;99873.00;5087887;28;20098;-70
2021/07/13 01:25:51;;;;;;;11.88;7.80;;;;;;;19.93;71.50;99869.09;5086950;28;20589;-70
2021/07/13 01:28:23;;;;;;;12.85;9.10;;;;;;;19.96;71.33;99871.44;5087604;28;20048;-70
2021/07/13 01:30:57;;;;;;;11.45;8.85;;;;;;;19.91;71.35;99879.19;5086672;28;20154;-70
2021/07/13 01:33:26;;;;;;;11.52;8.82;;;;;;;19.88;71.41;99874.19;5086669;28;20040;-70
2021/07/13 01:35:57;;;;;;;12.75;9.35;;;;;;;19.83;71.78;99874.72;5086560;28;20153;-70
2021/07/13 01:38:28;;;;;;;12.43;9.40;;;;;;;19.84;71.72;99872.88;5086292;28;20059;-70
2021/07/13 01:40:59;;;;;;;13.27;10.95;;;;;;;19.81;71.75;99854.50;5086128;28;20056;-72
2021/07/13 01:43:29;;;;;;;12.35;8.27;;;;;;;19.76;72.03;99847.00;5086706;28;20044;-70
2021/07/13 01:45:57;;;;;;;12.55;8.88;;;;;;;19.74;71.99;99840.16;5087036;28;20044;-70
2021/07/13 01:48:26;;;;;;;16.52;10.88;;;;;;;19.70;72.28;99839.66;5087123;28;20048;-68
2021/07/13 01:50:54;;;;;;;13.38;10.10;;;;;;;19.65;72.48;99837.50;5084226;28;20529;-71
2021/07/13 01:53:23;;;;;;;15.30;10.88;;;;;;;19.65;72.82;99840.19;5087992;28;20059;-72
2021/07/13 01:55:50;;;;;;;15.98;11.65;;;;;;;19.67;72.58;99858.75;5086746;28;20040;-70
2021/07/13 01:58:22;;;;;;;18.40;11.40;;;;;;;19.67;72.71;99864.94;5087903;28;20044;-71
2021/07/13 02:00:51;;;;;;;17.17;11.10;;;;;;;19.62;72.64;99851.25;5088121;28;20052;-69
2021/07/13 02:03:18;;;;;;;14.55;10.85;;;;;;;19.51;72.89;99838.28;5086526;28;20063;-71
2021/07/13 02:05:46;;;;;;;15.75;11.55;;;;;;;19.44;72.98;99845.38;5086906;28;20412;-69
2021/07/13 02:08:13;;;;;;;14.27;11.40;;;;;;;19.43;72.76;99846.41;5087097;28;20047;-69
2021/07/13 02:10:41;;;;;;;16.52;11.77;;;;;;;19.40;72.94;99839.53;5086292;28;20063;-70
2021/07/13 02:13:11;;;;;;;16.00;10.00;;;;;;;19.49;72.76;99843.00;5086075;28;20055;-70
2021/07/13 02:15:39;;;;;;;12.80;8.68;;;;;;;19.51;72.30;99834.78;5086592;28;20051;-69
2021/07/13 02:18:07;;;;;;;19.45;10.15;;;;;;;19.51;72.42;99835.63;5086621;28;20048;-69
2021/07/13 02:20:35;;;;;;;14.93;9.95;;;;;;;19.53;72.31;99828.22;5083585;28;20067;-70
2021/07/13 02:23:02;;;;;;;14.32;9.45;;;;;;;19.56;72.16;99819.03;5086246;28;20661;-69
2021/07/13 02:25:29;;;;;;;15.95;9.80;;;;;;;19.59;72.15;99819.50;5085545;28;20047;-70
2021/07/13 02:28:04;;;;;;;11.60;9.77;;;;;;;19.65;72.17;99824.13;5085875;28;20048;-69
2021/07/13 02:30:35;;;;;;;13.95;10.38;;;;;;;19.62;71.93;99837.84;5086695;28;20054;-71
2021/07/13 02:33:06;;;;;;;14.48;9.35;;;;;;;19.57;72.43;99859.03;5085761;28;20044;-70
2021/07/13 02:35:39;;;;;;;11.95;8.85;;;;;;;19.58;72.16;99855.31;5086530;28;20055;-71
2021/07/13 02:38:07;;;;;;;14.13;10.18;;;;;;;19.62;72.27;99858.47;5086194;28;20064;-71
2021/07/13 02:40:34;;;;;;;13.32;8.98;;;;;;;19.64;71.99;99848.41;5086702;28;20040;-72
2021/07/13 02:43:02;;;;;;;13.35;8.85;;;;;;;19.62;72.47;99851.25;5087131;28;20044;-69
2021/07/13 02:45:30;;;;;;;12.25;9.57;;;;;;;19.60;72.17;99841.75;5084921;28;20048;-71
2021/07/13 02:47:59;;;;;;;15.25;10.07;;;;;;;19.57;72.64;99847.44;5086246;28;20143;-72
2021/07/13 02:50:28;;;;;;;16.15;9.75;;;;;;;19.57;72.51;99831.38;5085160;28;20671;-69
2021/07/13 02:52:58;;;;;;;11.48;9.00;;;;;;;19.55;72.57;99841.44;5085989;28;20044;-70
2021/07/13 02:55:26;;;;;;;13.98;10.00;;;;;;;19.49;72.51;99840.31;5087772;28;20048;-70
2021/07/13 02:57:56;;;;;;;23.30;10.20;;;;;;;19.46;72.77;99846.03;5087166;28;20048;-73
2021/07/13 03:00:24;;;;;;;13.50;10.07;;;;;;;19.46;72.99;99846.88;5086151;28;20082;-71
2021/07/13 03:02:52;;;;;;;12.23;8.85;;;;;;;19.49;72.67;99843.81;5085949;28;20458;-71
2021/07/13 03:05:21;;;;;;;14.85;10.57;;;;;;;19.58;72.83;99847.28;5086447;28;20143;-69
2021/07/13 03:07:50;;;;;;;13.27;9.68;;;;;;;19.60;72.86;99849.78;5086244;28;20044;-71
2021/07/13 03:10:20;;;;;;;16.55;11.60;;;;;;;19.61;72.70;99830.84;5085256;28;20040;-70
2021/07/13 03:12:48;;;;;;;15.57;12.45;;;;;;;19.61;72.95;99822.81;5086763;28;20493;-69
2021/07/13 03:15:15;;;;;;;13.45;11.25;;;;;;;19.60;73.38;99820.31;5087451;28;20143;-70
2021/07/13 03:17:42;;;;;;;13.20;9.63;;;;;;;19.56;73.56;99827.06;5094949;28;20041;-70
2021/07/13 03:20:10;;;;;;;12.00;9.52;;;;;;;19.57;73.54;99832.25;5097034;28;20044;-70
2021/07/13 03:22:42;;;;;;;11.30;8.93;;;;;;;19.62;73.30;99839.72;5099169;28;20051;-72
2021/07/13 03:25:13;;;;;;;15.48;10.38;;;;;;;19.66;72.92;99844.53;5099238;28;20148;-70
2021/07/13 03:27:41;;;;;;;16.52;10.88;;;;;;;19.68;73.17;99845.19;5096506;28;20048;-70
2021/07/13 03:30:10;;;;;;;23.95;12.20;;;;;;;19.71;73.03;99856.56;5096628;28;20044;-69
2021/07/13 03:32:38;;;;;;;12.23;9.23;;;;;;;19.69;72.97;99856.72;5089615;28;20047;-69
2021/07/13 03:35:06;;;;;;;11.93;8.93;;;;;;;19.69;73.04;99859.41;5088142;28;20126;-71
2021/07/13 03:37:33;;;;;;;14.45;8.75;;;;;;;19.71;72.79;99853.88;5089566;28;20048;-69
2021/07/13 03:40:00;;;;;;;11.43;8.52;;;;;;;19.75;72.50;99855.22;5091489;28;20059;-73
2021/07/13 03:42:28;;;;;;;13.82;7.90;;;;;;;19.79;72.53;99851.16;5090159;28;20048;-71
2021/07/13 03:44:56;;;;;;;10.13;8.13;;;;;;;19.77;72.33;99848.66;5090623;28;20485;-71
2021/07/13 03:47:23;;;;;;;13.23;8.43;;;;;;;19.76;72.44;99835.44;5091044;28;20056;-70
2021/07/13 03:49:51;;;;;;;10.80;8.43;;;;;;;19.80;72.02;99818.81;5089756;28;20059;-70
2021/07/13 03:52:27;;;;;;;9.00;6.93;;;;;;;19.77;72.15;99815.66;5089942;28;20050;-71
2021/07/13 03:54:54;;;;;;;13.18;8.05;;;;;;;19.78;71.94;99818.16;5090122;28;20404;-69
2021/07/13 03:57:21;;;;;;;12.63;8.07;;;;;;;19.82;71.64;99808.75;5090007;28;20590;-71
2021/07/13 03:59:48;;;;;;;10.88;7.00;;;;;;;19.82;71.77;99811.41;5089611;28;20554;-70
2021/07/13 04:02:16;;;;;;;10.30;7.68;;;;;;;19.87;71.66;99802.84;5090198;28;20498;-72
2021/07/13 04:04:43;;;;;;;9.60;7.40;;;;;;;19.93;71.50;99804.78;5089600;28;20048;-72
2021/07/13 04:07:11;;;;;;;10.48;7.38;;;;;;;19.97;71.33;99789.16;5088924;28;20443;-72
2021/07/13 04:09:37;;;;;;;12.00;8.55;;;;;;;19.99;70.95;99787.97;5089323;28;20044;-74
2021/07/13 04:12:05;;;;;;;10.25;7.75;;;;;;;20.02;71.12;99789.44;5089740;28;20071;-71
2021/07/13 04:14:34;;;;;;;9.48;7.93;;;;;;;20.03;70.96;99775.88;5088232;28;20500;-71
2021/07/13 04:17:02;;;;;;;8.20;6.35;;;;;;;20.02;70.67;99773.38;5089266;28;20052;-72
2021/07/13 04:19:30;;;;;;;11.70;8.55;;;;;;;20.02;70.72;99768.00;5051978;28;20040;-70
2021/07/13 04:21:57;;;;;;;11.05;7.20;;;;;;;20.01;71.00;99761.81;5087657;28;20619;-70
2021/07/13 04:24:24;;;;;;;10.75;6.97;;;;;;;20.09;70.44;99765.41;5088540;28;20491;-74
2021/07/13 04:26:51;;;;;;;12.13;8.45;;;;;;;20.15;70.67;99775.41;5088762;28;20051;-70
2021/07/13 04:29:17;;;;;;;12.27;9.18;;;;;;;20.27;70.28;99757.00;5088847;28;20044;-71
2021/07/13 04:31:44;;;;;;;13.18;10.50;;;;;;;20.40;70.09;99760.69;5088734;28;20060;-71
2021/07/13 04:34:11;;;;;;;12.65;9.23;;;;;;;20.50;69.77;99770.28;5088112;28;20487;-75
2021/07/13 04:36:41;;;;;;;12.15;9.48;;;;;;;20.55;69.71;99767.88;5093992;28;20052;-76
2021/07/13 04:39:09;;;;;;;12.73;9.32;;;;;;;20.67;69.42;99754.81;5097028;28;20052;-77
2021/07/13 04:41:37;;;;;;;57.90;51.75;;;;;;;20.70;69.57;99747.22;5096940;28;20040;-76
2021/07/13 04:44:04;;;;;;;12.68;10.70;;;;;;;20.71;69.49;99735.47;5091501;28;20048;-78
2021/07/13 04:46:31;;;;;;;13.80;10.55;;;;;;;20.64;69.63;99734.59;5090080;28;20459;-76
2021/07/13 04:48:58;;;;;;;11.85;9.90;;;;;;;20.78;69.36;99731.03;5089467;28;20048;-75
2021/07/13 04:51:26;;;;;;;12.13;9.60;;;;;;;21.03;68.68;99733.34;5089070;28;20059;-74
2021/07/13 04:53:54;;;;;;;11.85;10.60;;;;;;;21.20;67.79;99741.94;5087721;28;20036;-74
2021/07/13 04:56:21;;;;;;;14.82;9.90;;;;;;;21.39;67.47;99730.53;5088518;28;20044;-73
2021/07/13 04:58:48;;;;;;;19.10;10.73;;;;;;;22.04;66.21;99716.09;5090943;28;20048;-81
2021/07/13 05:01:15;;;;;;;11.15;9.38;;;;;;;22.97;63.36;99716.41;5097359;28;20118;-78
2021/07/13 05:03:42;;;;;;;9.30;8.20;;;;;;;24.02;60.89;99710.34;5095400;28;20487;-75
2021/07/13 05:06:09;;;;;;;9.45;8.13;;;;;;;25.01;58.44;99721.69;5089989;28;20048;-73
2021/07/13 05:08:37;;;;;;;7.85;6.18;;;;;;;25.70;57.04;99709.06;5090008;28;20055;-74
2021/07/13 05:11:06;;;;;;;10.75;6.25;;;;;;;26.25;55.68;99700.16;5088617;28;20052;-75
2021/07/13 05:13:33;;;;;;;8.80;6.95;;;;;;;26.66;54.79;99705.88;5092777;28;20052;-74
2021/07/13 05:16:00;;;;;;;10.75;6.35;;;;;;;27.12;53.32;99708.94;5088475;28;20443;-74
2021/07/13 05:18:27;;;;;;;9.85;7.45;;;;;;;27.33;52.60;99704.88;5087555;28;20044;-74
2021/07/13 05:20:58;;;;;;;8.93;6.03;;;;;;;27.60;51.43;99706.06;5087724;28;20054;-74
2021/07/13 05:23:25;;;;;;;9.73;5.40;;;;;;;28.19;50.52;99702.44;5087867;28;20381;-75
2021/07/13 05:25:52;;;;;;;8.68;5.55;;;;;;;28.29;49.60;99693.66;5086911;28;20154;-80
2021/07/13 05:28:20;;;;;;;9.95;5.28;;;;;;;28.28;49.74;99702.91;5087514;28;20055;-72
2021/07/13 05:30:48;;;;;;;6.75;6.00;;;;;;;28.05;50.13;99718.16;5086104;28;20744;-70
2021/07/13 05:33:16;;;;;;;6.28;5.13;;;;;;;27.78;50.56;99717.84;5086910;28;20048;-71
2021/07/13 05:35:44;;;;;;;10.73;6.53;;;;;;;27.65;51.15;99730.56;5085651;28;20051;-72
2021/07/13 05:38:12;;;;;;;7.32;6.00;;;;;;;27.61;51.13;99726.69;5087188;28;20044;-73
2021/07/13 05:40:39;;;;;;;7.07;6.22;;;;;;;27.64;51.00;99725.38;5087411;28;20052;-73
2021/07/13 05:43:06;;;;;;;6.80;5.43;;;;;;;27.90;50.61;99725.97;5086363;28;20048;-73
2021/07/13 05:45:35;;;;;;;8.00;5.38;;;;;;;28.28;49.63;99727.34;5085961;28;20048;-73
2021/07/13 05:48:02;;;;;;;7.75;5.38;;;;;;;28.62;49.16;99732.91;5086858;28;20040;-72
2021/07/13 05:50:29;;;;;;;10.27;6.05;;;;;;;28.71;48.90;99742.31;5085717;28;20052;-72
2021/07/13 05:52:57;;;;;;;7.65;5.50;;;;;;;28.78;48.73;99738.38;5085920;28;20524;-73
2021/07/13 05:55:24;;;;;;;6.85;6.00;;;;;;;28.89;48.18;99733.13;5084977;28;20044;-71
2021/07/13 05:57:51;;;;;;;8.95;6.68;;;;;;;28.88;48.21;99737.75;5086123;28;20067;-72
2021/07/13 06:00:19;;;;;;;7.30;5.25;;;;;;;29.00;48.08;99724.09;5086186;28;20055;-73
2021/07/13 06:02:48;;;;;;;5.45;4.53;;;;;;;29.20;47.46;99734.50;5084669;28;20606;-72
2021/07/13 06:05:15;;;;;;;6.25;4.30;;;;;;;28.30;48.99;99730.63;5085161;28;20070;-72
2021/07/13 06:07:43;;;;;;;6.78;4.53;;;;;;;27.32;50.96;99727.66;5085467;28;20044;-73
2021/07/13 06:10:11;;;;;;;9.30;5.28;;;;;;;26.59;53.33;99726.78;5084752;28;20656;-74
2021/07/13 06:12:37;;;;;;;7.85;4.63;;;;;;;26.15;54.40;99739.66;5087155;28;20055;-73
2021/07/13 06:15:06;;;;;;;7.60;4.50;;;;;;;25.85;55.61;99740.34;5084167;28;20055;-73
2021/07/13 06:17:34;;;;;;;5.50;4.85;;;;;;;25.75;56.47;99739.00;5084999;28;20656;-75
2021/07/13 06:20:04;;;;;;;13.68;11.85;;;;;;;25.54;56.83;99745.63;5083558;28;20389;-77
2021/07/13 06:22:31;;;;;;;8.57;4.43;;;;;;;25.43;57.08;99740.13;5084810;28;20139;-73
2021/07/13 06:24:58;;;;;;;4.90;4.38;;;;;;;25.38;57.03;99733.50;5083530;28;20109;-72
2021/07/13 06:27:25;;;;;;;5.07;4.43;;;;;;;25.38;57.83;99743.50;5084333;28;20061;-73
2021/07/13 06:29:52;;;;;;;5.40;4.53;;;;;;;25.59;57.46;99747.69;5084551;28;20048;-70
2021/07/13 06:32:20;;;;;;;5.03;4.15;;;;;;;26.11;55.99;99748.22;5084841;28;20499;-71
2021/07/13 06:34:46;;;;;;;5.55;3.97;;;;;;;26.18;55.93;99747.31;5083141;28;20377;-72
2021/07/13 06:37:15;;;;;;;4.60;4.20;;;;;;;26.31;55.37;99747.97;5084092;28;20058;-74
2021/07/13 06:39:42;;;;;;;10.77;5.65;;;;;;;26.47;55.26;99759.22;5084294;28;20492;-72
2021/07/13 06:42:09;;;;;;;3.78;2.85;;;;;;;26.54;54.84;99756.44;5083336;28;20044;-73
2021/07/13 06:44:36;;;;;;;4.25;3.15;;;;;;;26.46;54.88;99766.53;5084235;28;20085;-74
2021/07/13 06:47:03;;;;;;;4.25;3.72;;;;;;;26.46;55.15;99766.53;5084522;28;20044;-73
2021/07/13 06:49:30;;;;;;;5.90;4.70;;;;;;;26.51;55.37;99765.88;5081874;28;20044;-73
2021/07/13 06:51:57;;;;;;;3.30;2.88;;;;;;;26.36;55.00;99768.13;5085521;28;20074;-75
2021/07/13 06:54:25;;;;;;;6.65;3.22;;;;;;;26.19;55.44;99768.72;5084314;28;20059;-73
2021/07/13 06:56:52;;;;;;;4.55;3.08;;;;;;;26.14;54.63;99776.69;5082876;28;20330;-73
2021/07/13 06:59:19;;;;;;;5.35;3.60;;;;;;;26.25;54.47;99778.69;5084233;28;20480;-73
2021/07/13 07:01:45;;;;;;;4.88;2.75;;;;;;;26.29;53.78;99784.47;5081993;28;20055;-72
2021/07/13 07:04:12;;;;;;;4.35;3.05;;;;;;;26.28;53.47;99778.19;5081714;28;20048;-73
2021/07/13 07:06:39;;;;;;;8.52;4.90;;;;;;;26.18;53.86;99779.78;5083515;28;20055;-74
2021/07/13 07:09:06;;;;;;;3.78;2.63;;;;;;;26.17;53.53;99770.84;5083003;28;20067;-73
2021/07/13 07:11:34;;;;;;;3.35;2.85;;;;;;;26.37;53.26;99776.03;5083678;28;20131;-73
2021/07/13 07:14:01;;;;;;;3.47;2.67;;;;;;;26.51;53.43;99785.63;5086798;28;20056;-74
2021/07/13 07:16:28;;;;;;;4.40;3.35;;;;;;;26.59;53.35;99779.06;5085671;28;20048;-73
2021/07/13 07:18:55;;;;;;;4.40;2.92;;;;;;;26.54;52.62;99775.41;5084600;28;20055;-74
2021/07/13 07:21:22;;;;;;;3.80;2.97;;;;;;;26.60;52.74;99771.78;5084616;28;20174;-73
2021/07/13 07:23:49;;;;;;;5.45;3.22;;;;;;;26.72;52.47;99782.69;5085590;28;20048;-75
2021/07/13 07:26:16;;;;;;;5.22;4.40;;;;;;;26.64;52.65;99786.56;5085224;28;20055;-72
2021/07/13 07:28:44;;;;;;;3.30;3.00;;;;;;;26.67;52.63;99783.41;5085456;28;20056;-73
2021/07/13 07:31:11;;;;;;;5.45;3.83;;;;;;;26.76;53.11;99779.31;5084921;28;20070;-72
2021/07/13 07:33:38;;;;;;;3.75;3.30;;;;;;;27.01;52.44;99779.16;5086252;28;20048;-72
2021/07/13 07:36:05;;;;;;;5.22;3.38;;;;;;;27.21;52.01;99780.75;5084765;28;20473;-74
2021/07/13 07:38:34;;;;;;;3.72;3.08;;;;;;;27.13;51.59;99771.06;5085722;28;20124;-71
2021/07/13 07:41:01;;;;;;;3.72;2.97;;;;;;;27.01;51.18;99767.47;5087165;28;20416;-73
2021/07/13 07:43:28;;;;;;;5.55;3.30;;;;;;;26.86;51.83;99747.06;5086364;28;20055;-72
2021/07/13 07:45:56;;;;;;;3.92;3.40;;;;;;;27.06;51.21;99737.81;5085664;28;20051;-74
2021/07/13 07:48:24;;;;;;;3.08;2.70;;;;;;;27.33;50.30;99737.41;5086743;28;20040;-74
2021/07/13 07:50:51;;;;;;;4.22;3.15;;;;;;;27.57;49.97;99739.09;5083598;28;20102;-73
2021/07/13 07:53:18;;;;;;;3.97;3.55;;;;;;;28.05;49.48;99739.06;5082850;28;20157;-74
2021/07/13 07:55:45;;;;;;;4.47;3.08;;;;;;;28.57;48.18;99729.03;5085662;28;20044;-73
2021/07/13 07:58:12;;;;;;;3.90;3.40;;;;;;;29.00;47.38;99729.53;5085183;28;20062;-72
2021/07/13 08:00:38;;;;;;;4.18;3.60;;;;;;;29.56;47.03;99735.06;5082710;28;20048;-71
2021/07/13 08:03:08;;;;;;;5.68;3.75;;;;;;;29.81;46.33;99729.19;5085860;28;20639;-73
2021/07/13 08:05:37;;;;;;;4.75;3.45;;;;;;;29.44;47.25;99729.72;5084547;28;20055;-73
2021/07/13 08:08:04;;;;;;;4.45;3.38;;;;;;;28.86;47.97;99720.84;5083667;28;20748;-72
2021/07/13 08:10:31;;;;;;;5.03;3.70;;;;;;;28.47;49.09;99706.22;5084875;28;20041;-73
2021/07/13 08:12:58;;;;;;;4.72;3.72;;;;;;;28.44;48.87;99704.03;5085214;28;20051;-72
2021/07/13 08:15:26;;;;;;;4.85;4.20;;;;;;;28.16;47.77;99711.91;5083554;28;20080;-73
2021/07/13 08:17:54;;;;;;;5.18;4.53;;;;;;;27.97;48.45;99696.84;5085560;28;20048;-74
2021/07/13 08:20:22;;;;;;;5.80;4.53;;;;;;;27.78;48.30;99712.41;5083468;28;20048;-75
2021/07/13 08:22:50;;;;;;;5.57;4.28;;;;;;;27.69;48.26;99708.41;5083190;28;20044;-74
2021/07/13 08:25:18;;;;;;;6.85;6.22;;;;;;;27.71;49.28;99711.72;5085627;28;20040;-73
2021/07/13 08:27:46;;;;;;;6.15;4.80;;;;;;;27.81;48.73;99720.09;5085438;28;20056;-75
2021/07/13 08:30:14;;;;;;;8.13;6.97;;;;;;;27.94;49.05;99717.13;5083669;28;20063;-73
2021/07/13 08:32:41;;;;;;;9.07;6.60;;;;;;;28.16;48.08;99713.78;5083523;28;20400;-73
2021/07/13 08:35:11;;;;;;;6.80;5.80;;;;;;;28.24;47.64;99704.44;5083381;28;20048;-73
2021/07/13 08:37:39;;;;;;;6.97;5.65;;;;;;;28.25;47.53;99706.09;5084532;28;20126;-72
2021/07/13 08:40:09;;;;;;;5.60;5.00;;;;;;;28.16;47.00;99709.19;5083045;28;20400;-74
2021/07/13 08:42:37;;;;;;;5.90;4.60;;;;;;;28.29;47.20;99713.53;5083164;28;20127;-74
2021/07/13 08:45:11;;;;;;;8.25;6.63;;;;;;;28.33;47.31;99706.53;5087487;28;20067;-74
2021/07/13 08:47:39;;;;;;;6.25;5.65;;;;;;;28.26;47.65;99708.56;5084660;28;20047;-74
2021/07/13 08:50:08;;;;;;;5.72;4.63;;;;;;;28.21;46.97;99701.13;5084408;28;20064;-73
2021/07/13 08:52:35;;;;;;;6.03;5.25;;;;;;;28.13;46.95;99698.00;5084090;28;20052;-73
2021/07/13 08:55:06;;;;;;;9.75;5.30;;;;;;;28.12;48.06;99696.34;5085613;28;20070;-75
2021/07/13 08:57:34;;;;;;;5.88;5.18;;;;;;;28.29;47.74;99696.38;5085716;28;20095;-74
2021/07/13 09:00:00;;;;;;;5.85;5.30;;;;;;;28.28;48.09;99703.72;5084482;28;20048;-74
2021/07/13 09:02:27;;;;;;;6.38;5.03;;;;;;;28.39;47.70;99697.41;5083649;28;20047;-73
2021/07/13 09:04:55;;;;;;;6.68;5.72;;;;;;;28.49;47.57;99702.22;5083157;28;20578;-75
2021/07/13 09:07:22;;;;;;;5.85;5.15;;;;;;;28.54;47.42;99699.63;5084209;28;20048;-74
2021/07/13 09:09:52;;;;;;;6.93;5.35;;;;;;;28.53;47.14;99702.56;5081870;28;20048;-73
2021/07/13 09:12:21;;;;;;;9.38;5.45;;;;;;;28.36;47.36;99710.66;5083429;28;20590;-73
2021/07/13 09:14:55;;;;;;;10.15;4.95;;;;;;;28.27;48.04;99704.78;5083057;28;20113;-76
2021/07/13 09:17:39;;;;;;;8.27;6.28;;;;;;;28.27;48.16;99706.66;5081482;28;20068;-74
2021/07/13 09:20:16;;;;;;;7.97;5.88;;;;;;;28.24;48.14;99705.28;5082455;28;20052;-74
2021/07/13 09:22:54;;;;;;;8.68;6.60;;;;;;;28.21;48.48;99697.59;5082266;28;20150;-73
2021/07/13 09:25:29;;;;;;;5.65;4.95;;;;;;;28.12;48.04;99704.47;5082860;28;20660;-73
2021/07/13 09:28:16;;;;;;;9.60;5.45;;;;;;;27.99;48.41;99692.81;5083565;28;20056;-75
2021/07/13 09:30:45;;;;;;;7.47;5.93;;;;;;;27.90;48.60;99691.53;5081880;28;20052;-76
2021/07/13 09:33:21;;;;;;;6.78;5.85;;;;;;;27.71;48.78;99692.72;5083542;28;20500;-75
2021/07/13 09:36:02;;;;;;;10.40;7.63;;;;;;;27.79;49.55;99686.94;5083484;28;20695;-74
2021/07/13 09:38:31;;;;;;;10.77;7.28;;;;;;;27.91;49.43;99685.06;5084101;28;20050;-75
2021/07/13 09:41:04;;;;;;;10.77;8.10;;;;;;;28.05;49.26;99680.16;5084090;28;20060;-74
2021/07/13 09:43:46;;;;;;;8.48;7.30;;;;;;;28.14;49.75;99683.34;5084914;28;20051;-75
2021/07/13 09:46:24;;;;;;;8.40;7.28;;;;;;;28.36;49.22;99684.34;5084212;28;20679;-74
2021/07/13 09:49:20;;;;;;;12.93;8.88;;;;;;;28.50;48.44;99679.41;5085019;28;20048;-75
2021/07/13 09:51:54;;;;;;;8.25;6.13;;;;;;;28.52;48.17;99682.72;5084318;28;20044;-76
2021/07/13 09:54:29;;;;;;;9.45;7.60;;;;;;;28.45;48.49;99686.66;5083975;28;20605;-75
2021/07/13 09:56:57;;;;;;;9.80;6.55;;;;;;;28.40;48.86;99684.66;5083246;28;20127;-76
2021/07/13 09:59:25;;;;;;;7.88;7.07;;;;;;;28.43;48.94;99676.00;5081979;28;20056;-74
2021/07/13 10:01:52;;;;;;;12.85;8.35;;;;;;;28.49;49.01;99672.34;5083194;28;20056;-76
2021/07/13 10:04:20;;;;;;;10.07;8.18;;;;;;;28.53;49.01;99672.69;5082968;28;20085;-74
2021/07/13 10:06:50;;;;;;;9.57;8.52;;;;;;;28.82;48.22;99683.53;5083637;28;20051;-75
2021/07/13 10:09:19;;;;;;;8.00;7.20;;;;;;;28.87;48.06;99678.19;5083184;28;20040;-76
2021/07/13 10:11:46;;;;;;;7.97;7.18;;;;;;;28.88;48.50;99679.84;5083756;28;20044;-77
2021/07/13 10:14:13;;;;;;;7.57;6.13;;;;;;;28.89;48.25;99678.78;5081596;28;20060;-76
2021/07/13 10:16:42;;;;;;;8.65;7.45;;;;;;;28.77;48.02;99682.41;5083666;28;20577;-75
2021/07/13 10:19:10;;;;;;;9.15;8.10;;;;;;;28.84;48.56;99678.69;5086214;28;20059;-75
2021/07/13 10:21:38;;;;;;;8.93;7.80;;;;;;;29.15;47.79;99680.03;5081178;28;20048;-76
2021/07/13 10:24:06;;;;;;;12.18;7.43;;;;;;;29.53;46.73;99672.97;5082364;28;20040;-76
2021/07/13 10:26:48;;;;;;;9.98;6.65;;;;;;;29.86;45.81;99672.09;5046981;28;20052;-76
2021/07/13 10:29:40;;;;;;;8.32;7.47;;;;;;;29.95;46.04;99672.50;5083459;28;20055;-75
2021/07/13 10:32:30;;;;;;;8.00;7.20;;;;;;;30.11;45.67;99665.34;5078049;28;20144;-74
2021/07/13 10:34:59;;;;;;;10.13;9.07;;;;;;;30.09;45.97;99662.03;5080146;28;20051;-75
2021/07/13 10:37:31;;;;;;;8.40;7.55;;;;;;;29.89;46.67;99666.16;5082529;28;20102;-74
2021/07/13 10:40:01;;;;;;;9.55;7.88;;;;;;;30.10;45.50;99666.41;5076099;28;20040;-75
2021/07/13 10:42:48;;;;;;;9.20;8.27;;;;;;;30.26;44.77;99662.75;5079805;28;20042;-75
2021/07/13 10:45:21;;;;;;;11.30;9.82;;;;;;;30.41;43.97;99658.59;5082654;28;20492;-75
2021/07/13 10:48:06;;;;;;;9.80;6.45;;;;;;;30.58;43.99;99651.13;5085617;28;20764;-75
2021/07/13 10:50:52;;;;;;;9.55;8.55;;;;;;;30.43;44.30;99660.00;5083870;28;20055;-74
2021/07/13 10:53:29;;;;;;;19.58;9.18;;;;;;;30.55;43.80;99656.28;5085727;28;20044;-74
2021/07/13 10:55:59;;;;;;;6.95;5.95;;;;;;;30.60;43.43;99659.88;5086083;28;20052;-73
2021/07/13 10:58:49;;;;;;;8.27;7.32;;;;;;;30.44;43.80;99661.63;5086729;28;20048;-74
2021/07/13 11:01:32;;;;;;;8.98;8.07;;;;;;;30.58;42.89;99659.31;5085068;28;20044;-75
2021/07/13 11:04:12;;;;;;;10.48;8.18;;;;;;;30.84;42.81;99656.81;5085065;28;20044;-74
2021/07/13 11:06:52;;;;;;;8.68;7.57;;;;;;;30.98;42.33;99654.50;5086731;28;20044;-75
2021/07/13 11:09:38;;;;;;;9.38;7.55;;;;;;;31.16;42.29;99654.09;5084548;28;20048;-75
2021/07/13 11:12:13;;;;;;;;;;;;;;;31.21;42.40;99639.69;5086604;28;20044;-75
2021/07/13 11:14:57;;;;;;;9.90;8.82;;;;;;;30.92;43.27;99639.16;5085250;28;20011;-76
2021/07/13 11:17:26;;;;;;;11.20;7.95;;;;;;;30.84;42.72;99635.81;5085879;28;20048;-75
2021/07/13 11:20:06;;;;;;;9.77;7.35;;;;;;;30.85;42.44;99639.38;5084749;28;20048;-75
2021/07/13 11:22:35;;;;;;;8.15;7.30;;;;;;;30.91;42.62;99632.06;5085001;28;20058;-76
2021/07/13 11:25:03;;;;;;;8.60;7.78;;;;;;;30.89;42.24;99640.50;5084823;28;20477;-76
2021/07/13 11:27:30;;;;;;;7.22;6.25;;;;;;;30.74;42.55;99630.28;5085212;28;20048;-75
2021/07/13 11:29:56;;;;;;;8.30;7.50;;;;;;;30.88;42.06;99627.94;5084393;28;20048;-76
2021/07/13 11:32:23;;;;;;;8.63;7.82;;;;;;;31.04;41.79;99624.28;5087920;28;20040;-76
2021/07/13 11:34:50;;;;;;;14.23;9.82;;;;;;;31.43;42.15;99620.44;5086714;28;20602;-75
2021/07/13 11:37:19;;;;;;;7.45;6.70;;;;;;;31.42;41.68;99619.59;5085813;28;20044;-75
2021/07/13 11:39:46;;;;;;;9.73;7.60;;;;;;;30.97;42.26;99615.50;5085917;28;20319;-75